»·PEaware :: N522PM KSBA-KSNA

N522PM :: KSBA-KSNA

FLIGHT INFORMATION

Flight Status: Arrived
Operator: Privately registered:
United States
More flights under this callsign
Pilot: Bruce B. (6887)
Aircraft: Unknown
(E50P)
More flights by this aircraft type
Origin: KSBA Santa Barbara Mun
United States
Destination: KSNA John Wayne-Orange Co
United States
More flights between these airports :: More routes between these airports
Route: +KWANG VTU V208 SXC SLI
File this flight plan on PilotEdge
Remarks: TEC Route SBAN8 (J)
Altitude:
(Current/Filed)
11,000ft
Speed:
(Current/Filed)
325kts
Departed: 01-Jan-18 05:20 PM
Arrived: 01-Jan-18 06:04 PM
Distance/Time
Traveled:
108nm/0:44
Distance/Time
To Go:
Arrived

Flight Plot

Page will automatically refresh every two minutes.


Map Options




Map Legend


Flown Route
Filed Route
Departure Airport
Arrival Airport
Navaid (VOR, NDB)
Fix

Horizontal Profiles

Position Reports

Time Latitude Longitude Heading Altitude Ground
Speed
01-Jan-18 17:12 34.426248 -119.836930 180 15ft 0kts
01-Jan-18 17:13 34.426248 -119.836930 180 15ft 0kts
01-Jan-18 17:14 34.426248 -119.836930 180 15ft 0kts
01-Jan-18 17:15 34.426248 -119.836930 180 15ft 0kts
01-Jan-18 17:16 34.426248 -119.836930 180 15ft 0kts
01-Jan-18 17:17 34.426248 -119.836930 180 15ft 0kts
01-Jan-18 17:18 34.426248 -119.836930 180 15ft 0kts
01-Jan-18 17:19 34.426248 -119.836930 180 15ft 0kts
01-Jan-18 17:20 34.426248 -119.836930 180 15ft 0kts
01-Jan-18 17:21 34.426247 -119.836930 179 15ft 0kts
01-Jan-18 17:22 34.426867 -119.835561 87 15ft 4kts
01-Jan-18 17:23 34.427285 -119.835151 0 15ft 0kts
01-Jan-18 17:24 34.427286 -119.835151 0 15ft 0kts
01-Jan-18 17:25 34.427652 -119.835158 358 15ft 6kts
01-Jan-18 17:26 34.427792 -119.840399 268 15ft 76kts
01-Jan-18 17:27 34.427564 -119.883210 269 1144ft 142kts
01-Jan-18 17:28 34.427700 -119.930631 268 2818ft 149kts
01-Jan-18 17:29 34.404632 -119.979426 174 3385ft 227kts
01-Jan-18 17:30 34.345493 -119.950130 153 5296ft 229kts
01-Jan-18 17:31 34.288798 -119.916200 153 7285ft 227kts
01-Jan-18 17:32 34.227513 -119.879253 153 8323ft 263kts
01-Jan-18 17:33 34.192780 -119.806787 111 9828ft 265kts
01-Jan-18 17:34 34.152998 -119.731800 125 10878ft 271kts
01-Jan-18 17:35 34.109045 -119.657009 125 11000ft 276kts
01-Jan-18 17:36 34.064369 -119.580501 125 11000ft 282kts
01-Jan-18 17:37 34.019016 -119.502939 125 11000ft 284kts
01-Jan-18 17:38 33.973168 -119.424704 125 10999ft 285kts
01-Jan-18 17:39 33.927289 -119.346608 125 10999ft 286kts
01-Jan-18 17:40 33.881131 -119.268222 125 10999ft 286kts
01-Jan-18 17:41 33.835989 -119.191703 125 10997ft 274kts
01-Jan-18 17:42 33.792501 -119.118218 125 10998ft 266kts
01-Jan-18 17:43 33.749527 -119.045661 125 11002ft 266kts
01-Jan-18 17:44 33.706566 -118.973284 125 11004ft 266kts
01-Jan-18 17:45 33.663502 -118.900896 125 11005ft 267kts
01-Jan-18 17:46 33.620144 -118.828159 125 10990ft 268kts
01-Jan-18 17:47 33.610571 -118.743220 83 9951ft 261kts
01-Jan-18 17:48 33.619535 -118.656338 82 8094ft 262kts
01-Jan-18 17:49 33.628568 -118.571382 82 6097ft 251kts
01-Jan-18 17:50 33.636990 -118.492313 82 5074ft 227kts
01-Jan-18 17:51 33.644776 -118.418062 82 5007ft 221kts
01-Jan-18 17:52 33.652481 -118.344723 82 5006ft 221kts
01-Jan-18 17:53 33.660248 -118.271240 82 5003ft 221kts
01-Jan-18 17:54 33.667942 -118.198081 82 5002ft 221kts
01-Jan-18 17:55 33.675612 -118.124987 82 4997ft 219kts
01-Jan-18 17:56 33.682831 -118.056287 82 4991ft 208kts
01-Jan-18 17:57 33.689866 -117.989336 82 4989ft 197kts
01-Jan-18 17:58 33.712445 -117.936293 25 4999ft 190kts
01-Jan-18 17:59 33.761132 -117.912127 22 4993ft 187kts
01-Jan-18 18:00 33.811472 -117.887578 22 4357ft 208kts
01-Jan-18 18:01 33.862436 -117.861814 26 4039ft 189kts
01-Jan-18 18:02 33.871644 -117.808657 92 3979ft 161kts
01-Jan-18 18:03 33.854489 -117.773499 180 3794ft 142kts
01-Jan-18 18:04 33.820269 -117.777476 197 3067ft 141kts
01-Jan-18 18:05 33.783727 -117.799809 209 2488ft 117kts
01-Jan-18 18:06 33.755322 -117.818018 206 1775ft 114kts
01-Jan-18 18:07 33.732673 -117.832375 210 1331ft 105kts
01-Jan-18 18:08 33.702264 -117.852346 207 571ft 104kts
01-Jan-18 18:09 33.681508 -117.865192 209 92ft 91kts
01-Jan-18 18:10 33.669632 -117.872062 161 61ft 15kts
01-Jan-18 18:11 33.670647 -117.869337 40 61ft 12kts
01-Jan-18 18:12 33.672032 -117.867469 200 61ft 0kts
01-Jan-18 18:13 33.672032 -117.867469 200 61ft 0kts

Navigation Log

Ident Type
1. KSBA Airport
2. KWANG Fix
3. VTU Navaid
4. WEEZL Fix
5. SXC Navaid
6. SLI Navaid
7. KSNA Airport